Time;durP1;ratioP1;P1;durP2;ratioP2;P2;SDS_P1;SDS_P2;PMS_P1;PMS_P2;Temp;Humidity;BMP_temperature;BMP_pressure;BME280_temperature;BME280_humidity;BME280_pressure;Samples;Min_cycle;Max_cycle;Signal;HPM_P1;HPM_P2
2021/04/26 00:00:37;;;;;;;1.30;0.70;;;20.40;38.40;;;;;;10451470;28;20205;-16
2021/04/26 00:06:00;;;;;;;1.20;0.70;;;20.50;38.50;;;;;;10417330;28;20213;-15
2021/04/26 00:11:22;;;;;;;0.57;0.53;;;20.40;38.00;;;;;;10416195;28;20685;-15
2021/04/26 00:16:43;;;;;;;1.13;0.73;;;20.40;38.20;;;;;;10417305;28;20214;-15
2021/04/26 00:22:06;;;;;;;1.63;0.83;;;20.40;37.80;;;;;;10417080;28;20209;-15
2021/04/26 00:27:27;;;;;;;2.07;0.80;;;20.30;38.30;;;;;;10416358;28;20276;-15
2021/04/26 00:32:50;;;;;;;1.53;0.80;;;20.40;38.00;;;;;;10444981;28;20217;-15
2021/04/26 00:38:12;;;;;;;1.00;0.73;;;20.30;38.30;;;;;;10456437;28;20710;-15
2021/04/26 00:43:34;;;;;;;0.90;0.80;;;20.30;38.00;;;;;;10456414;28;20549;-15
2021/04/26 00:48:55;;;;;;;0.67;0.63;;;20.40;38.00;;;;;;10455621;28;20215;-15
2021/04/26 00:54:18;;;;;;;0.70;0.50;;;20.40;37.60;;;;;;10455214;28;20209;-15
2021/04/26 00:59:40;;;;;;;1.00;0.60;;;20.50;37.80;;;;;;10415220;28;20190;-16
2021/04/26 01:05:01;;;;;;;0.73;0.63;;;20.50;37.60;;;;;;10415449;28;20289;-15
2021/04/26 01:10:27;;;;;;;0.80;0.70;;;20.50;37.70;;;;;;10414358;28;20670;-15
2021/04/26 01:15:55;;;;;;;0.80;0.70;;;20.50;37.60;;;;;;10413851;28;20217;-15
2021/04/26 01:22:06;;;;;;;0.73;0.63;;;20.40;37.70;;;;;;10413760;28;20269;-15
2021/04/26 01:27:44;;;;;;;1.30;0.80;;;20.40;37.70;;;;;;10414907;28;20216;-15
2021/04/26 01:33:10;;;;;;;0.63;0.63;;;20.50;37.40;;;;;;10434009;28;20663;-15
2021/04/26 01:38:33;;;;;;;1.10;0.80;;;20.50;37.40;;;;;;10429245;22;20655;-15
2021/04/26 01:43:56;;;;;;;0.53;0.53;;;20.40;37.30;;;;;;10414243;28;20240;-14
2021/04/26 01:49:19;;;;;;;1.50;0.77;;;20.30;37.60;;;;;;10413325;28;20701;-14
2021/04/26 01:54:41;;;;;;;0.50;0.50;;;20.40;37.30;;;;;;10410126;28;20221;-15
2021/04/26 02:00:11;;;;;;;1.00;0.80;;;20.40;37.20;;;;;;10413426;28;20190;-14
2021/04/26 02:05:35;;;;;;;2.20;0.73;;;20.40;37.20;;;;;;10411701;28;20210;-15
2021/04/26 02:10:56;;;;;;;0.80;0.67;;;20.50;37.10;;;;;;10410291;28;20205;-15
2021/04/26 02:16:18;;;;;;;0.80;0.57;;;20.50;37.50;;;;;;10411713;28;20601;-15
2021/04/26 02:21:41;;;;;;;0.60;0.60;;;20.40;37.50;;;;;;10411690;28;20198;-15
2021/04/26 02:27:03;;;;;;;1.03;0.60;;;20.40;37.40;;;;;;10410735;28;20533;-15
2021/04/26 02:32:30;;;;;;;0.57;0.50;;;20.40;37.40;;;;;;10376303;28;20194;-14
2021/04/26 02:37:56;;;;;;;0.83;0.57;;;20.40;37.40;;;;;;10369980;28;20297;-15
2021/04/26 02:43:18;;;;;;;2.27;0.70;;;20.40;37.30;;;;;;10370298;28;20321;-15
2021/04/26 02:48:43;;;;;;;0.73;0.50;;;20.40;37.20;;;;;;10369627;28;20218;-15
2021/04/26 02:54:07;;;;;;;0.70;0.50;;;20.40;36.90;;;;;;10369571;28;20209;-16
2021/04/26 02:59:30;;;;;;;1.10;0.73;;;20.30;37.30;;;;;;10369324;28;20686;-15
2021/04/26 03:04:52;;;;;;;1.67;0.73;;;20.30;37.30;;;;;;10369547;28;20221;-15
2021/04/26 03:10:16;;;;;;;1.07;0.70;;;20.30;37.20;;;;;;10407304;28;20577;-15
2021/04/26 03:15:38;;;;;;;0.97;0.60;;;20.30;37.50;;;;;;10410169;28;20566;-15
2021/04/26 03:21:02;;;;;;;1.17;0.80;;;20.30;37.00;;;;;;10380440;28;20201;-15
2021/04/26 03:26:25;;;;;;;1.03;0.90;;;20.30;37.40;;;;;;10400497;28;20222;-15
2021/04/26 03:31:48;;;;;;;1.60;1.00;;;20.40;37.40;;;;;;10416364;28;20205;-15
2021/04/26 03:37:14;;;;;;;2.23;1.63;;;20.30;37.20;;;;;;10416641;28;20243;-15
2021/04/26 03:42:37;;;;;;;2.03;1.33;;;20.30;37.10;;;;;;10417725;28;20216;-15
2021/04/26 03:47:59;;;;;;;3.77;1.60;;;20.30;37.10;;;;;;10417446;28;20271;-15
2021/04/26 03:53:20;;;;;;;1.37;1.07;;;20.30;37.40;;;;;;10416174;28;20229;-15
2021/04/26 03:58:43;;;;;;;1.10;1.00;;;20.30;37.40;;;;;;10417256;28;20228;-15
2021/04/26 04:04:05;;;;;;;1.63;0.97;;;20.20;37.60;;;;;;10416573;28;20194;-15
2021/04/26 04:09:27;;;;;;;1.70;1.20;;;20.30;37.60;;;;;;10417209;28;20267;-15
2021/04/26 04:14:49;;;;;;;1.27;0.97;;;20.20;37.80;;;;;;10416433;28;20217;-14
2021/04/26 04:20:12;;;;;;;1.13;0.97;;;20.30;37.70;;;;;;10413611;28;20275;-15
2021/04/26 04:25:34;;;;;;;1.20;0.83;;;20.20;37.40;;;;;;10416674;28;20585;-15
2021/04/26 04:30:56;;;;;;;1.73;0.97;;;20.20;37.80;;;;;;10415698;28;20193;-15
2021/04/26 04:36:18;;;;;;;1.00;0.90;;;20.20;37.70;;;;;;10392794;28;20230;-14
2021/04/26 04:41:39;;;;;;;0.93;0.90;;;20.20;37.90;;;;;;10375140;28;20574;-15
2021/04/26 04:47:02;;;;;;;3.83;1.30;;;20.20;37.80;;;;;;10375002;28;20221;-14
2021/04/26 04:52:23;;;;;;;1.80;1.23;;;20.20;38.00;;;;;;10396127;28;20202;-15
2021/04/26 04:57:45;;;;;;;1.00;0.80;;;20.20;38.10;;;;;;10413783;28;20282;-15
2021/04/26 05:03:07;;;;;;;1.30;1.20;;;20.10;38.10;;;;;;10414323;28;20201;-15
2021/04/26 05:08:29;;;;;;;1.60;1.00;;;20.20;38.20;;;;;;10414449;28;20221;-15
2021/04/26 05:13:51;;;;;;;2.40;0.90;;;20.20;37.90;;;;;;10414284;28;20214;-15
2021/04/26 05:19:13;;;;;;;1.07;0.90;;;20.20;38.20;;;;;;10413723;28;20213;-14
2021/04/26 05:24:35;;;;;;;2.03;1.20;;;20.30;37.90;;;;;;10413511;28;20208;-15
2021/04/26 05:29:57;;;;;;;1.27;1.07;;;20.20;37.90;;;;;;10412907;28;20198;-16
2021/04/26 05:35:19;;;;;;;1.77;0.90;;;20.20;38.00;;;;;;10413197;28;20217;-15
2021/04/26 05:40:41;;;;;;;2.73;1.10;;;20.20;38.40;;;;;;10413402;28;20193;-15
2021/04/26 05:46:03;;;;;;;1.63;1.20;;;20.20;38.40;;;;;;10410940;28;20210;-15
2021/04/26 05:51:25;;;;;;;1.57;0.80;;;20.20;38.50;;;;;;10397661;28;20205;-14
2021/04/26 05:56:47;;;;;;;0.80;0.70;;;20.10;38.10;;;;;;10411052;28;20283;-15
2021/04/26 06:02:09;;;;;;;1.10;0.93;;;20.20;38.50;;;;;;10411715;28;20202;-15
2021/04/26 06:07:31;;;;;;;3.07;0.93;;;20.20;38.20;;;;;;10405742;28;20669;-14
2021/04/26 06:12:53;;;;;;;5.50;1.00;;;20.20;38.20;;;;;;10403301;28;20208;-15
2021/04/26 06:18:16;;;;;;;1.00;0.80;;;20.50;38.30;;;;;;10394814;28;20222;-15
2021/04/26 06:23:39;;;;;;;0.70;0.50;;;20.80;38.10;;;;;;10369693;28;20585;-16
2021/04/26 06:29:00;;;;;;;1.07;0.80;;;21.10;37.70;;;;;;10423867;28;20224;-15
2021/04/26 06:34:22;;;;;;;1.60;0.70;;;21.30;37.40;;;;;;10415484;28;20221;-15
2021/04/26 06:39:44;;;;;;;1.27;0.77;;;21.50;37.20;;;;;;10423383;28;20703;-15
2021/04/26 06:45:07;;;;;;;1.03;0.60;;;21.60;37.20;;;;;;10451614;28;20217;-14
2021/04/26 06:50:29;;;;;;;1.00;0.80;;;21.70;37.10;;;;;;10428603;28;20201;-15
2021/04/26 06:55:52;;;;;;;1.00;0.70;;;21.80;36.80;;;;;;10438158;28;20244;-15
2021/04/26 07:01:13;;;;;;;1.27;0.60;;;21.80;36.80;;;;;;10409098;28;20251;-15
2021/04/26 07:06:35;;;;;;;1.10;0.60;;;21.90;36.80;;;;;;10440235;28;20217;-15
2021/04/26 07:11:58;;;;;;;0.40;0.40;;;22.00;36.70;;;;;;10450765;28;20189;-14
2021/04/26 07:17:22;;;;;;;1.07;0.57;;;22.10;36.50;;;;;;10449098;28;20217;-14
2021/04/26 07:22:44;;;;;;;0.67;0.50;;;22.00;36.80;;;;;;10449526;28;20284;-15
2021/04/26 07:28:06;;;;;;;2.27;0.50;;;22.10;36.70;;;;;;10450376;28;20213;-15
2021/04/26 07:33:28;;;;;;;1.37;0.40;;;22.30;36.60;;;;;;10410636;28;20641;-15
2021/04/26 07:38:50;;;;;;;0.83;0.50;;;22.20;36.50;;;;;;10369822;28;20725;-15
2021/04/26 07:44:12;;;;;;;0.50;0.40;;;22.20;36.70;;;;;;10403473;28;20194;-14
2021/04/26 07:49:34;;;;;;;0.67;0.50;;;22.30;36.60;;;;;;10448737;28;20199;-15
2021/04/26 07:54:55;;;;;;;0.50;0.30;;;22.40;36.40;;;;;;10436426;28;20271;-15
2021/04/26 08:00:19;;;;;;;1.70;0.60;;;22.40;36.50;;;;;;10412313;28;20204;-15
2021/04/26 08:05:41;;;;;;;0.93;0.40;;;22.40;36.50;;;;;;10419753;28;20221;-15
2021/04/26 08:11:02;;;;;;;0.40;0.40;;;22.40;36.50;;;;;;10407961;28;20201;-15
2021/04/26 08:16:25;;;;;;;1.57;0.70;;;22.40;36.60;;;;;;10412021;28;20221;-14
2021/04/26 08:21:48;;;;;;;0.73;0.40;;;22.40;36.60;;;;;;10415362;28;20289;-14
2021/04/26 08:27:10;;;;;;;0.40;0.40;;;22.50;36.60;;;;;;10415793;28;20271;-15
2021/04/26 08:32:33;;;;;;;0.63;0.40;;;22.60;36.40;;;;;;10423985;28;20250;-15
2021/04/26 08:37:56;;;;;;;0.30;0.30;;;22.50;37.00;;;;;;10415687;28;20229;-15
2021/04/26 08:43:18;;;;;;;1.63;0.40;;;22.50;36.50;;;;;;10399500;28;20248;-14
2021/04/26 08:48:41;;;;;;;1.60;0.53;;;22.70;36.30;;;;;;10387852;28;20218;-15
2021/04/26 08:54:03;;;;;;;0.53;0.47;;;22.80;36.20;;;;;;10414876;28;20301;-16
2021/04/26 08:59:25;;;;;;;0.77;0.57;;;22.70;36.20;;;;;;10410038;28;20201;-16
2021/04/26 09:04:50;;;;;;;0.30;0.30;;;22.70;36.30;;;;;;10419385;28;20214;-15
2021/04/26 09:10:12;;;;;;;0.40;0.30;;;22.80;36.30;;;;;;10413482;28;20197;-15
2021/04/26 09:15:50;;;;;;;0.40;0.40;;;22.70;36.30;;;;;;10413931;28;20214;-15
2021/04/26 09:21:14;;;;;;;0.80;0.40;;;22.80;36.40;;;;;;10413673;28;20190;-15
2021/04/26 09:26:36;;;;;;;0.77;0.47;;;22.80;36.40;;;;;;10412209;28;20213;-15
2021/04/26 09:32:07;;;;;;;1.47;0.47;;;22.80;36.30;;;;;;10413083;28;20936;-14
2021/04/26 09:37:30;;;;;;;0.40;0.40;;;22.80;36.40;;;;;;10372351;28;20232;-15
2021/04/26 09:42:55;;;;;;;0.50;0.40;;;22.80;36.50;;;;;;10388272;28;20202;-15
2021/04/26 09:48:19;;;;;;;0.83;0.43;;;22.90;36.40;;;;;;10373759;28;20575;-15
2021/04/26 09:53:53;;;;;;;0.50;0.23;;;22.90;36.40;;;;;;10372015;28;20222;-15
2021/04/26 09:59:16;;;;;;;0.43;0.43;;;22.90;36.40;;;;;;10411861;28;20220;-15
2021/04/26 10:04:38;;;;;;;0.57;0.30;;;22.90;36.50;;;;;;10416703;28;20576;-15
2021/04/26 10:10:00;;;;;;;1.33;0.40;;;22.90;36.50;;;;;;10434496;28;20676;-16
2021/04/26 10:15:26;;;;;;;0.60;0.40;;;23.40;35.80;;;;;;10433312;28;20236;-16
2021/04/26 10:20:49;;;;;;;0.37;0.37;;;23.70;35.30;;;;;;10411171;28;20197;-15
2021/04/26 10:26:43;;;;;;;2.40;0.40;;;23.90;34.90;;;;;;10410972;28;20217;-15
2021/04/26 10:32:12;;;;;;;0.60;0.30;;;23.70;35.10;;;;;;10390052;28;20272;-15
2021/04/26 10:37:34;;;;;;;0.30;0.30;;;23.40;35.60;;;;;;10369285;28;20567;-15
2021/04/26 10:42:56;;;;;;;0.63;0.20;;;23.30;35.50;;;;;;10369288;28;20202;-15
2021/04/26 10:48:18;;;;;;;0.43;0.30;;;23.30;35.60;;;;;;10369365;28;20226;-15
2021/04/26 10:53:46;;;;;;;1.60;0.30;;;22.80;36.50;;;;;;10369984;28;20214;-14
2021/04/26 10:59:29;;;;;;;1.50;0.20;;;22.50;37.00;;;;;;10408914;28;20213;-15
2021/04/26 11:05:18;;;;;;;1.33;0.43;;;22.80;37.10;;;;;;10408496;28;20221;-15
2021/04/26 11:10:44;;;;;;;1.83;0.70;;;23.00;36.80;;;;;;10409957;28;20248;-15
2021/04/26 11:16:08;;;;;;;7.60;2.00;;;23.10;36.50;;;;;;10380871;28;20311;-15
2021/04/26 11:22:01;;;;;;;3.97;1.60;;;22.60;37.30;;;;;;10434108;28;20647;-14
2021/04/26 11:27:24;;;;;;;5.10;1.60;;;22.40;38.00;;;;;;10450421;28;20224;-15
2021/04/26 11:33:11;;;;;;;5.23;1.50;;;22.30;38.30;;;;;;10406320;28;20200;-16
2021/04/26 11:38:34;;;;;;;2.77;1.73;;;22.30;38.30;;;;;;10409663;28;20241;-15
2021/04/26 11:43:55;;;;;;;4.63;1.83;;;22.30;38.30;;;;;;10409090;28;20247;-16
2021/04/26 11:49:21;;;;;;;4.10;1.83;;;22.40;38.30;;;;;;10370966;28;20709;-15
2021/04/26 11:54:44;;;;;;;4.70;2.17;;;22.20;38.60;;;;;;10407999;28;20224;-15
2021/04/26 12:00:09;;;;;;;2.40;1.43;;;22.20;38.70;;;;;;10409762;28;20197;-15
2021/04/26 12:05:32;;;;;;;5.17;2.03;;;22.40;38.50;;;;;;10420150;28;20303;-15
2021/04/26 12:10:54;;;;;;;5.70;2.20;;;22.20;38.60;;;;;;10427554;28;20197;-15
2021/04/26 12:16:25;;;;;;;5.97;1.83;;;22.30;38.90;;;;;;10390472;28;20225;-16
2021/04/26 12:21:48;;;;;;;5.43;2.07;;;22.40;38.70;;;;;;10412217;28;20202;-15
2021/04/26 12:27:11;;;;;;;4.40;1.90;;;22.30;38.70;;;;;;10409394;28;20206;-15
2021/04/26 12:32:33;;;;;;;5.17;1.73;;;22.20;39.00;;;;;;10415270;28;20194;-15
2021/04/26 12:37:57;;;;;;;4.87;2.00;;;22.30;38.90;;;;;;10414942;28;20225;-15
2021/04/26 12:43:19;;;;;;;5.67;1.97;;;22.40;38.70;;;;;;10413643;28;20202;-15
2021/04/26 12:48:42;;;;;;;3.60;1.80;;;22.30;38.80;;;;;;10413616;28;20218;-15
2021/04/26 12:54:09;;;;;;;3.87;1.87;;;22.30;38.90;;;;;;10414931;28;20240;-14
2021/04/26 12:59:44;;;;;;;4.47;1.93;;;22.30;38.80;;;;;;10373597;28;20618;-14
2021/04/26 13:05:06;;;;;;;3.63;1.80;;;22.40;38.80;;;;;;10409300;28;20206;-15
2021/04/26 13:10:38;;;;;;;4.47;1.87;;;22.30;38.90;;;;;;10413486;28;20194;-14
2021/04/26 13:16:18;;;;;;;4.70;1.60;;;22.30;38.90;;;;;;10410217;28;20234;-15
2021/04/26 13:21:43;;;;;;;2.00;1.20;;;22.40;38.90;;;;;;10430618;28;20200;-15
2021/04/26 13:27:08;;;;;;;3.10;1.53;;;22.30;39.00;;;;;;10452344;28;20209;-15
2021/04/26 13:32:30;;;;;;;3.67;1.60;;;22.20;39.00;;;;;;10452555;28;20284;-15
2021/04/26 13:37:51;;;;;;;5.10;1.60;;;22.30;39.10;;;;;;10453420;28;20221;-15
2021/04/26 13:43:15;;;;;;;4.47;1.37;;;22.30;39.10;;;;;;10456093;28;20687;-14
2021/04/26 13:48:36;;;;;;;3.73;1.50;;;22.20;39.30;;;;;;10387514;28;20639;-13
2021/04/26 13:53:58;;;;;;;3.90;1.67;;;22.20;39.60;;;;;;10375632;28;20739;-15
2021/04/26 13:59:21;;;;;;;4.30;1.47;;;22.10;39.80;;;;;;10405140;28;20218;-14
2021/04/26 14:04:43;;;;;;;4.67;1.33;;;22.10;39.50;;;;;;10430706;28;20257;-14
2021/04/26 14:10:06;;;;;;;2.20;1.30;;;22.30;39.40;;;;;;10453457;28;20201;-13
2021/04/26 14:15:28;;;;;;;5.13;1.47;;;22.40;39.00;;;;;;10444260;28;20244;-14
2021/04/26 14:20:50;;;;;;;3.33;1.57;;;22.40;39.10;;;;;;10412307;28;20201;-13
2021/04/26 14:26:12;;;;;;;3.83;1.40;;;22.30;39.40;;;;;;10405290;28;20545;-14
2021/04/26 14:31:34;;;;;;;4.00;1.20;;;22.20;39.40;;;;;;10412331;28;20200;-13
2021/04/26 14:36:56;;;;;;;6.57;1.47;;;22.30;39.10;;;;;;10410038;28;20783;-14
2021/04/26 14:42:17;;;;;;;2.03;1.30;;;22.30;38.60;;;;;;10411468;28;20212;-12
2021/04/26 14:47:40;;;;;;;4.53;1.27;;;22.30;38.50;;;;;;10411991;28;20210;-14
2021/04/26 14:53:01;;;;;;;3.03;1.10;;;22.30;38.70;;;;;;10412129;28;20201;-15
2021/04/26 14:58:23;;;;;;;2.63;0.93;;;22.30;38.70;;;;;;10412655;28;20722;-14
2021/04/26 15:03:45;;;;;;;1.30;0.87;;;22.40;39.00;;;;;;10428294;28;20201;-14
2021/04/26 15:09:07;;;;;;;1.90;0.70;;;22.40;38.30;;;;;;10452677;28;20216;-13
2021/04/26 15:14:29;;;;;;;1.93;1.07;;;22.30;38.40;;;;;;10451686;28;20216;-15
2021/04/26 15:19:51;;;;;;;2.20;0.97;;;22.40;38.30;;;;;;10452856;28;20196;-14
2021/04/26 15:25:13;;;;;;;2.77;1.07;;;22.40;38.10;;;;;;10454153;28;20205;-12
2021/04/26 15:30:35;;;;;;;1.47;1.10;;;22.10;34.10;;;;;;10452973;28;20205;-14
2021/04/26 15:35:58;;;;;;;2.20;0.83;;;22.20;36.00;;;;;;10453063;28;20274;-14
2021/04/26 15:41:19;;;;;;;2.40;1.03;;;22.40;36.80;;;;;;10451356;28;20205;-15
2021/04/26 15:46:41;;;;;;;1.30;0.70;;;22.50;37.00;;;;;;10453266;28;20227;-14
2021/04/26 15:52:04;;;;;;;1.80;0.93;;;22.50;37.30;;;;;;10452993;28;20247;-15
2021/04/26 15:57:28;;;;;;;1.57;0.77;;;22.60;37.30;;;;;;10419662;28;20229;-14
2021/04/26 16:02:49;;;;;;;0.97;0.63;;;22.60;37.60;;;;;;10408729;28;20205;-14
2021/04/26 16:08:13;;;;;;;1.63;0.73;;;23.20;36.80;;;;;;10436315;28;20220;-12
2021/04/26 16:13:35;;;;;;;2.23;0.60;;;24.00;36.10;;;;;;10410871;28;20230;-14
2021/04/26 16:18:56;;;;;;;1.90;0.50;;;24.40;35.20;;;;;;10411312;28;20279;-14
2021/04/26 16:24:19;;;;;;;2.20;0.93;;;24.30;35.40;;;;;;10409966;28;20194;-13
2021/04/26 16:29:40;;;;;;;4.47;1.10;;;24.40;35.20;;;;;;10410036;28;20213;-14
2021/04/26 16:35:03;;;;;;;1.07;0.70;;;24.50;35.10;;;;;;10374259;28;20234;-14
2021/04/26 16:40:25;;;;;;;0.80;0.60;;;23.90;35.40;;;;;;10379573;28;20206;-14
2021/04/26 16:45:47;;;;;;;1.53;0.70;;;23.30;36.70;;;;;;10378099;28;20674;-15
2021/04/26 16:51:09;;;;;;;1.23;0.70;;;23.00;37.40;;;;;;10380483;28;20189;-15
2021/04/26 16:56:32;;;;;;;0.60;0.50;;;22.80;37.90;;;;;;10400997;28;20233;-13
2021/04/26 17:01:53;;;;;;;2.90;0.90;;;22.50;38.30;;;;;;10405396;28;20202;-14
2021/04/26 17:07:15;;;;;;;1.33;0.60;;;22.50;38.60;;;;;;10399624;28;20217;-12
2021/04/26 17:12:38;;;;;;;1.20;0.60;;;22.40;38.80;;;;;;10419432;28;20198;-14
2021/04/26 17:17:59;;;;;;;1.40;0.67;;;22.40;38.90;;;;;;10418119;28;20225;-13
2021/04/26 17:23:23;;;;;;;1.47;0.57;;;22.30;39.10;;;;;;10413327;28;20215;-14
2021/04/26 17:28:46;;;;;;;0.53;0.53;;;22.30;38.90;;;;;;10418139;28;20221;-15
2021/04/26 17:34:08;;;;;;;1.37;0.60;;;22.30;38.70;;;;;;10416835;28;20304;-14
2021/04/26 17:39:30;;;;;;;1.23;0.70;;;22.30;39.30;;;;;;10417531;28;20206;-15
2021/04/26 17:44:53;;;;;;;1.17;0.53;;;22.30;39.20;;;;;;10389647;28;20210;-16
2021/04/26 17:50:15;;;;;;;1.90;0.60;;;22.50;38.60;;;;;;10414200;28;20197;-14
2021/04/26 17:55:37;;;;;;;0.97;0.50;;;22.60;38.10;;;;;;10414168;28;20222;-15
2021/04/26 18:01:00;;;;;;;0.40;0.40;;;22.70;37.90;;;;;;10412951;28;20198;-14
2021/04/26 18:06:24;;;;;;;0.60;0.47;;;22.70;38.10;;;;;;10413535;28;20224;-13
2021/04/26 18:11:45;;;;;;;0.87;0.50;;;22.60;38.40;;;;;;10414724;28;20230;-15
2021/04/26 18:17:09;;;;;;;1.33;0.70;;;22.50;38.80;;;;;;10414074;28;20225;-14
2021/04/26 18:22:31;;;;;;;2.53;0.57;;;22.60;38.70;;;;;;10415167;28;20268;-14
2021/04/26 18:27:53;;;;;;;1.43;0.40;;;22.60;38.70;;;;;;10413579;28;20216;-14
2021/04/26 18:33:15;;;;;;;0.70;0.50;;;22.50;39.00;;;;;;10393804;28;20202;-15
2021/04/26 18:38:37;;;;;;;1.77;0.70;;;22.60;39.00;;;;;;10410137;28;20786;-14
2021/04/26 18:43:59;;;;;;;1.80;0.43;;;22.60;39.10;;;;;;10413148;28;20225;-14
2021/04/26 18:49:21;;;;;;;2.67;0.80;;;22.40;39.40;;;;;;10414006;28;20271;-14
2021/04/26 18:54:43;;;;;;;0.40;0.40;;;22.30;39.60;;;;;;10391628;28;20635;-13
2021/04/26 19:00:06;;;;;;;0.67;0.50;;;22.20;39.90;;;;;;10402203;28;20201;-15
2021/04/26 19:05:28;;;;;;;0.67;0.60;;;22.10;39.90;;;;;;10412053;28;20221;-15
2021/04/26 19:10:50;;;;;;;1.00;0.60;;;22.00;40.20;;;;;;10406587;28;20197;-14
2021/04/26 19:16:13;;;;;;;3.23;0.60;;;21.80;40.30;;;;;;10406805;28;20228;-13
2021/04/26 19:21:36;;;;;;;1.83;0.70;;;22.00;40.70;;;;;;10406036;28;20220;-15
2021/04/26 19:26:58;;;;;;;0.90;0.53;;;22.00;39.70;;;;;;10406063;28;20209;-15
2021/04/26 19:32:19;;;;;;;1.77;0.77;;;22.00;39.60;;;;;;10406160;28;20213;-15
2021/04/26 19:37:43;;;;;;;1.30;0.63;;;22.00;39.70;;;;;;10406419;28;20240;-15
2021/04/26 19:43:05;;;;;;;0.70;0.50;;;22.00;39.60;;;;;;10405538;28;20194;-15
2021/04/26 19:48:27;;;;;;;1.33;0.67;;;22.00;39.60;;;;;;10406221;28;20216;-15
2021/04/26 19:53:50;;;;;;;1.87;0.60;;;22.00;39.50;;;;;;10411578;28;20202;-16
2021/04/26 19:59:12;;;;;;;1.43;0.70;;;22.00;39.60;;;;;;10411337;28;20272;-15
2021/04/26 20:04:35;;;;;;;1.33;0.50;;;22.00;39.30;;;;;;10370286;28;20194;-14
2021/04/26 20:09:58;;;;;;;1.83;0.70;;;22.00;39.20;;;;;;10387944;28;20271;-13
2021/04/26 20:15:19;;;;;;;0.87;0.47;;;22.00;39.20;;;;;;10379086;28;20226;-14
2021/04/26 20:20:41;;;;;;;1.37;0.60;;;22.00;39.50;;;;;;10377837;28;20206;-15
2021/04/26 20:26:05;;;;;;;0.60;0.50;;;22.00;39.40;;;;;;10377608;28;20215;-15
2021/04/26 20:31:27;;;;;;;1.20;0.47;;;22.00;39.40;;;;;;10377583;28;20289;-14
2021/04/26 20:36:49;;;;;;;1.00;0.60;;;22.10;39.20;;;;;;10377087;28;20218;-14
2021/04/26 20:42:12;;;;;;;0.80;0.60;;;22.00;39.40;;;;;;10400464;28;20225;-17
2021/04/26 20:47:34;;;;;;;1.87;0.60;;;21.90;39.50;;;;;;10418528;28;20210;-15
2021/04/26 20:52:55;;;;;;;2.27;0.50;;;21.90;39.50;;;;;;10418074;28;20550;-14
2021/04/26 20:58:18;;;;;;;1.60;0.60;;;21.80;39.70;;;;;;10417583;28;20218;-16
2021/04/26 21:03:40;;;;;;;2.27;0.60;;;21.70;39.80;;;;;;10381341;28;20206;-14
2021/04/26 21:09:02;;;;;;;0.43;0.43;;;21.70;40.10;;;;;;10376713;28;20249;-15
2021/04/26 21:14:25;;;;;;;0.50;0.50;;;21.60;40.00;;;;;;10376470;28;20633;-15
2021/04/26 21:19:47;;;;;;;2.30;0.60;;;21.60;40.10;;;;;;10376365;28;20194;-14
2021/04/26 21:25:12;;;;;;;0.70;0.67;;;21.60;40.20;;;;;;10375436;28;20218;-15
2021/04/26 21:30:34;;;;;;;0.40;0.33;;;21.60;39.80;;;;;;10375929;28;20198;-16
2021/04/26 21:35:56;;;;;;;0.30;0.30;;;21.60;40.10;;;;;;10375505;28;20297;-15
2021/04/26 21:41:18;;;;;;;0.83;0.50;;;21.60;40.00;;;;;;10384446;28;20198;-16
2021/04/26 21:46:40;;;;;;;0.97;0.50;;;21.60;40.00;;;;;;10416304;28;20222;-14
2021/04/26 21:52:02;;;;;;;1.60;0.40;;;21.50;40.00;;;;;;10414703;28;20261;-14
2021/04/26 21:57:24;;;;;;;0.60;0.50;;;21.60;40.00;;;;;;10410089;28;20228;-14
2021/04/26 22:02:47;;;;;;;0.77;0.50;;;21.60;39.80;;;;;;10411124;28;20193;-16
2021/04/26 22:08:08;;;;;;;0.40;0.40;;;21.50;39.80;;;;;;10375271;28;20210;-14
2021/04/26 22:13:30;;;;;;;0.70;0.47;;;21.50;39.70;;;;;;10394333;28;20202;-17
2021/04/26 22:18:53;;;;;;;0.50;0.50;;;21.50;40.00;;;;;;10417376;28;20279;-15
2021/04/26 22:24:16;;;;;;;1.27;0.60;;;21.60;39.90;;;;;;10418220;28;20202;-14
2021/04/26 22:29:38;;;;;;;1.00;0.40;;;21.50;39.90;;;;;;10414553;28;20198;-15
2021/04/26 22:35:00;;;;;;;1.07;0.60;;;21.50;39.80;;;;;;10413735;28;20228;-16
2021/04/26 22:40:24;;;;;;;0.30;0.30;;;21.60;39.70;;;;;;10414086;28;20696;-16
2021/04/26 22:45:46;;;;;;;1.47;0.67;;;21.50;39.80;;;;;;10410078;28;20250;-14
2021/04/26 22:51:09;;;;;;;0.80;0.50;;;21.40;39.90;;;;;;10413570;28;20202;-14
2021/04/26 22:56:30;;;;;;;0.90;0.50;;;21.40;40.00;;;;;;10413079;28;20747;-16
2021/04/26 23:01:52;;;;;;;0.63;0.40;;;21.40;40.00;;;;;;10413445;28;20197;-15
2021/04/26 23:07:14;;;;;;;0.57;0.50;;;21.50;39.70;;;;;;10412099;28;20218;-15
2021/04/26 23:12:36;;;;;;;1.00;0.60;;;21.40;39.70;;;;;;10413022;28;20274;-15
2021/04/26 23:17:58;;;;;;;0.40;0.40;;;21.50;40.00;;;;;;10412783;28;20279;-17
2021/04/26 23:23:20;;;;;;;0.47;0.40;;;21.50;39.90;;;;;;10412536;28;20205;-14
2021/04/26 23:28:42;;;;;;;0.70;0.40;;;21.50;39.60;;;;;;10411478;28;20206;-15
2021/04/26 23:34:04;;;;;;;0.83;0.50;;;21.50;39.90;;;;;;10412652;28;20673;-15
2021/04/26 23:39:26;;;;;;;0.50;0.50;;;21.40;39.80;;;;;;10412576;28;20217;-17
2021/04/26 23:44:48;;;;;;;0.83;0.50;;;21.40;39.80;;;;;;10411870;28;20210;-15
2021/04/26 23:50:11;;;;;;;0.53;0.50;;;21.40;39.70;;;;;;10420295;28;20208;-14
2021/04/26 23:55:33;;;;;;;0.60;0.43;;;21.40;39.90;;;;;;10417143;28;20228;-14
